createdAt,value
2023-05-14T00:03:29.945Z,100.00
2023-05-14T00:07:33.077Z,100.00
2023-05-14T00:11:46.749Z,100.00
2023-05-14T00:15:50.981Z,100.00
2023-05-14T00:20:02.582Z,100.00
2023-05-14T00:24:06.079Z,100.00
2023-05-14T00:28:10.224Z,100.00
2023-05-14T00:32:12.786Z,100.00
2023-05-14T00:36:15.672Z,100.00
2023-05-14T00:40:22.110Z,100.00
2023-05-14T00:44:26.258Z,100.00
2023-05-14T00:48:29.168Z,100.00
2023-05-14T00:52:32.746Z,100.00
2023-05-14T00:56:37.003Z,100.00
2023-05-14T01:00:42.638Z,100.00
2023-05-14T01:04:50.293Z,100.00
2023-05-14T01:09:02.779Z,100.00
2023-05-14T01:13:13.259Z,100.00
2023-05-14T01:17:20.306Z,100.00
2023-05-14T01:21:38.178Z,100.00
2023-05-14T01:25:41.166Z,100.00
2023-05-14T01:29:51.352Z,100.00
2023-05-14T01:33:56.253Z,100.00
2023-05-14T01:38:03.445Z,100.00
2023-05-14T01:42:08.535Z,100.00
2023-05-14T01:46:11.589Z,100.00
2023-05-14T01:50:14.861Z,100.00
2023-05-14T01:54:18.862Z,100.00
2023-05-14T01:58:21.662Z,100.00
2023-05-14T02:02:24.642Z,100.00
2023-05-14T02:06:27.356Z,100.00
2023-05-14T02:10:31.424Z,100.00
2023-05-14T02:14:34.622Z,100.00
2023-05-14T02:18:37.194Z,100.00
2023-05-14T02:22:42.343Z,100.00
2023-05-14T02:26:46.570Z,100.00
2023-05-14T02:30:49.302Z,100.00
2023-05-14T02:34:51.714Z,100.00
2023-05-14T02:38:54.518Z,100.00
2023-05-14T02:42:58.834Z,100.00
2023-05-14T02:47:01.873Z,100.00
2023-05-14T02:51:05.135Z,100.00
2023-05-14T02:55:08.649Z,100.00
2023-05-14T02:59:12.435Z,100.00
2023-05-14T03:03:16.032Z,100.00
2023-05-14T03:07:19.071Z,100.00
2023-05-14T03:11:22.481Z,100.00
2023-05-14T03:15:28.582Z,100.00
2023-05-14T03:19:31.517Z,100.00
2023-05-14T03:23:35.237Z,100.00
2023-05-14T03:27:37.684Z,100.00
2023-05-14T03:31:42.220Z,100.00
2023-05-14T03:35:45.197Z,100.00
2023-05-14T03:39:48.322Z,100.00
2023-05-14T03:43:51.161Z,100.00
2023-05-14T03:47:55.638Z,100.00
2023-05-14T03:51:59.660Z,100.00
2023-05-14T03:56:02.766Z,100.00
2023-05-14T04:00:06.255Z,100.00
2023-05-14T04:04:10.918Z,99.22
2023-05-14T04:08:13.994Z,95.96
2023-05-14T04:12:17.116Z,94.45
2023-05-14T04:16:20.288Z,89.31
2023-05-14T04:20:24.700Z,83.52
2023-05-14T04:24:27.844Z,76.08
2023-05-14T04:28:31.005Z,67.10
2023-05-14T04:32:33.785Z,60.67
2023-05-14T04:36:37.766Z,57.83
2023-05-14T04:40:41.625Z,54.72
2023-05-14T04:44:44.571Z,51.36
2023-05-14T04:48:48.046Z,48.80
2023-05-14T04:52:52.746Z,46.08
2023-05-14T04:56:56.507Z,43.57
2023-05-14T05:01:03.031Z,41.82
2023-05-14T05:05:06.588Z,39.70
2023-05-14T05:09:11.155Z,37.82
2023-05-14T05:13:14.486Z,37.28
2023-05-14T05:17:17.380Z,35.46
2023-05-14T05:21:20.542Z,31.58
2023-05-14T05:25:25.525Z,30.62
2023-05-14T05:29:28.636Z,30.82
2023-05-14T05:33:31.709Z,28.21
2023-05-14T05:37:34.591Z,26.87
2023-05-14T05:41:38.776Z,28.16
2023-05-14T05:45:42.252Z,26.57
2023-05-14T05:49:45.264Z,26.54
2023-05-14T05:53:48.698Z,28.44
2023-05-14T05:57:53.322Z,26.13
2023-05-14T06:01:56.321Z,26.87
2023-05-14T06:05:59.384Z,24.55
2023-05-14T06:10:02.434Z,24.38
2023-05-14T06:14:07.174Z,24.01
2023-05-14T06:18:10.334Z,23.25
2023-05-14T06:22:14.812Z,23.04
2023-05-14T06:26:18.037Z,22.16
2023-05-14T06:30:23.214Z,22.45
2023-05-14T06:34:26.263Z,22.73
2023-05-14T06:38:29.306Z,20.47
2023-05-14T06:42:31.960Z,20.56
2023-05-14T06:46:36.528Z,20.50
2023-05-14T06:50:39.592Z,20.68
2023-05-14T06:54:42.858Z,20.41
2023-05-14T06:58:45.910Z,19.45
2023-05-14T07:02:53.562Z,19.66
2023-05-14T07:06:56.749Z,18.21
2023-05-14T07:11:00.506Z,18.89
2023-05-14T07:15:03.506Z,19.01
2023-05-14T07:19:07.995Z,17.94
2023-05-14T07:23:10.741Z,21.93
2023-05-14T07:27:13.374Z,18.26
2023-05-14T07:31:16.004Z,19.46
2023-05-14T07:35:22.787Z,19.21
2023-05-14T07:39:28.586Z,17.82
2023-05-14T07:43:31.889Z,17.27
2023-05-14T07:47:34.841Z,20.60
2023-05-14T07:51:39.324Z,19.53
2023-05-14T07:55:42.350Z,17.94
2023-05-14T07:59:45.762Z,20.40
2023-05-14T08:03:48.868Z,18.12
2023-05-14T08:07:53.356Z,18.12
2023-05-14T08:11:56.237Z,17.24
2023-05-14T08:15:59.268Z,17.67
2023-05-14T08:20:02.361Z,16.99
2023-05-14T08:24:07.276Z,20.07
2023-05-14T08:28:10.128Z,17.36
2023-05-14T08:32:22.899Z,17.68
2023-05-14T08:36:26.520Z,17.19
2023-05-14T08:40:33.149Z,18.84
2023-05-14T08:44:41.044Z,18.07
2023-05-14T08:48:48.168Z,16.68
2023-05-14T08:52:50.998Z,18.24
2023-05-14T08:56:55.917Z,18.78
2023-05-14T09:01:00.743Z,18.00
2023-05-14T09:05:04.498Z,18.05
2023-05-14T09:09:07.462Z,19.66
2023-05-14T09:13:12.121Z,18.93
2023-05-14T09:17:15.421Z,19.11
2023-05-14T09:21:20.047Z,19.68
2023-05-14T09:25:28.637Z,19.16
2023-05-14T09:29:33.103Z,19.41
2023-05-14T09:33:37.269Z,20.22
2023-05-14T09:37:43.904Z,20.90
2023-05-14T09:41:47.076Z,21.41
2023-05-14T09:45:51.534Z,21.79
2023-05-14T09:49:54.706Z,21.63
2023-05-14T09:53:57.595Z,21.33
2023-05-14T09:58:00.945Z,22.02
2023-05-14T10:02:06.952Z,22.01
2023-05-14T10:06:14.633Z,24.36
2023-05-14T10:10:20.272Z,23.47
2023-05-14T10:14:30.851Z,22.62
2023-05-14T10:18:41.355Z,22.06
2023-05-14T10:22:44.372Z,23.29
2023-05-14T10:26:47.343Z,21.51
2023-05-14T10:30:51.429Z,22.18
2023-05-14T10:34:55.895Z,24.10
2023-05-14T10:38:58.934Z,22.69
2023-05-14T10:43:02.013Z,21.71
2023-05-14T10:47:05.466Z,23.01
2023-05-14T10:51:11.873Z,22.70
2023-05-14T10:55:17.299Z,21.89
2023-05-14T10:59:20.207Z,22.21
2023-05-14T11:03:23.641Z,23.12
2023-05-14T11:07:30.502Z,23.36
2023-05-14T11:11:34.100Z,22.58
2023-05-14T11:15:38.506Z,22.55
2023-05-14T11:19:44.255Z,23.03
2023-05-14T11:23:49.909Z,23.91
2023-05-14T11:27:56.229Z,24.53
2023-05-14T11:31:59.850Z,23.81
2023-05-14T11:36:03.291Z,23.75
2023-05-14T11:40:11.158Z,23.55
2023-05-14T11:44:14.501Z,22.80
2023-05-14T11:48:18.330Z,24.45
2023-05-14T11:52:22.340Z,24.83
2023-05-14T11:56:26.732Z,25.99
2023-05-14T12:00:29.509Z,25.15
2023-05-14T12:04:33.190Z,26.14
2023-05-14T12:08:36.181Z,23.46
2023-05-14T12:12:40.515Z,24.09
2023-05-14T12:16:44.866Z,23.77
2023-05-14T12:20:49.067Z,25.19
2023-05-14T12:24:58.806Z,24.39
2023-05-14T12:29:05.068Z,23.40
2023-05-14T12:33:08.074Z,24.34
2023-05-14T12:37:11.081Z,24.65
2023-05-14T12:41:13.918Z,26.02
2023-05-14T12:45:18.244Z,25.79
2023-05-14T12:49:20.961Z,24.60
2023-05-14T12:53:24.220Z,25.05
2023-05-14T12:57:27.926Z,26.25
2023-05-14T13:01:32.300Z,26.01
2023-05-14T13:05:35.548Z,25.30
2023-05-14T13:09:38.530Z,24.92
2023-05-14T13:13:41.310Z,24.70
2023-05-14T13:17:45.785Z,25.33
2023-05-14T13:21:48.754Z,26.63
2023-05-14T13:25:51.920Z,25.44
2023-05-14T13:29:54.845Z,25.60
2023-05-14T13:33:59.721Z,25.78
2023-05-14T13:38:03.223Z,26.33
2023-05-14T13:42:07.072Z,25.75
2023-05-14T13:46:09.626Z,25.67
2023-05-14T13:50:15.027Z,26.00
2023-05-14T13:54:18.188Z,26.35
2023-05-14T13:58:21.180Z,26.38
2023-05-14T14:02:24.329Z,27.54
2023-05-14T14:06:29.093Z,26.87
2023-05-14T14:10:32.487Z,25.30
2023-05-14T14:14:35.825Z,26.38
2023-05-14T14:18:39.155Z,26.22
2023-05-14T14:22:44.899Z,26.60
2023-05-14T14:26:47.948Z,27.02
2023-05-14T14:30:54.371Z,27.41
2023-05-14T14:34:59.283Z,27.04
2023-05-14T14:39:03.834Z,25.85
2023-05-14T14:43:06.943Z,27.20
2023-05-14T14:47:10.161Z,26.90
2023-05-14T14:51:13.533Z,28.49
2023-05-14T14:55:17.893Z,27.35
2023-05-14T14:59:20.986Z,28.01
2023-05-14T15:03:25.428Z,30.02
2023-05-14T15:07:33.100Z,29.01
2023-05-14T15:11:40.206Z,29.19
2023-05-14T15:15:43.192Z,29.62
2023-05-14T15:19:46.124Z,29.48
2023-05-14T15:23:50.065Z,30.26
2023-05-14T15:27:54.351Z,30.30
2023-05-14T15:31:57.397Z,30.89
2023-05-14T15:36:00.228Z,30.72
2023-05-14T15:40:03.322Z,30.30
2023-05-14T15:44:08.114Z,30.79
2023-05-14T15:48:11.117Z,30.61
2023-05-14T15:52:15.464Z,29.89
2023-05-14T15:56:18.640Z,30.99
2023-05-14T16:00:25.121Z,30.67
2023-05-14T16:04:28.650Z,30.42
2023-05-14T16:08:31.789Z,31.12
2023-05-14T16:12:36.588Z,30.23
2023-05-14T16:16:40.989Z,30.68
2023-05-14T16:20:43.991Z,31.47
2023-05-14T16:24:47.330Z,31.50
2023-05-14T16:28:49.972Z,33.08
2023-05-14T16:32:54.427Z,31.29
2023-05-14T16:36:57.607Z,31.87
2023-05-14T16:41:00.684Z,32.15
2023-05-14T16:45:04.198Z,32.16
2023-05-14T16:49:08.282Z,32.87
2023-05-14T16:53:11.347Z,32.96
2023-05-14T16:57:14.083Z,33.83
2023-05-14T17:01:17.548Z,33.90
2023-05-14T17:05:22.326Z,34.52
2023-05-14T17:09:27.366Z,35.72
2023-05-14T17:13:30.436Z,35.55
2023-05-14T17:17:53.019Z,35.75
2023-05-14T17:21:57.344Z,36.38
2023-05-14T17:26:00.517Z,36.13
2023-05-14T17:30:03.848Z,36.96
2023-05-14T17:34:10.818Z,36.57
2023-05-14T17:38:15.445Z,37.85
2023-05-14T17:42:18.455Z,38.14
2023-05-14T17:46:21.449Z,38.73
2023-05-14T17:50:24.681Z,38.46
2023-05-14T17:54:29.127Z,39.25
2023-05-14T17:58:32.291Z,39.88
2023-05-14T18:02:35.538Z,39.61
2023-05-14T18:06:38.896Z,39.98
2023-05-14T18:10:43.286Z,40.18
2023-05-14T18:14:46.313Z,41.53
2023-05-14T18:18:51.774Z,42.52
2023-05-14T18:22:54.953Z,42.48
2023-05-14T18:27:00.020Z,45.29
2023-05-14T18:31:05.899Z,47.48
2023-05-14T18:35:09.510Z,48.82
2023-05-14T18:39:12.396Z,50.58
2023-05-14T18:43:18.484Z,50.37
2023-05-14T18:47:21.541Z,53.18
2023-05-14T18:51:25.076Z,54.48
2023-05-14T18:55:28.821Z,54.16
2023-05-14T18:59:33.513Z,55.41
2023-05-14T19:03:42.664Z,57.86
2023-05-14T19:07:48.179Z,58.18
2023-05-14T19:11:51.179Z,59.87
2023-05-14T19:15:57.114Z,59.99
2023-05-14T19:20:00.393Z,61.03
2023-05-14T19:24:03.776Z,59.97
2023-05-14T19:28:07.628Z,62.76
2023-05-14T19:32:12.364Z,63.35
2023-05-14T19:36:15.393Z,65.25
2023-05-14T19:40:20.406Z,64.39
2023-05-14T19:44:23.242Z,64.84
2023-05-14T19:48:28.162Z,67.68
2023-05-14T19:52:30.960Z,66.42
2023-05-14T19:56:34.465Z,66.30
2023-05-14T20:00:37.886Z,66.83
2023-05-14T20:04:42.886Z,66.08
2023-05-14T20:08:46.627Z,67.93
2023-05-14T20:12:49.618Z,65.29
2023-05-14T20:16:53.308Z,68.03
2023-05-14T20:20:57.465Z,68.26
2023-05-14T20:25:00.533Z,69.06
2023-05-14T20:29:04.260Z,67.44
2023-05-14T20:33:09.197Z,67.44
2023-05-14T20:37:15.491Z,63.48
2023-05-14T20:41:18.235Z,60.04
2023-05-14T20:45:21.210Z,62.45
2023-05-14T20:49:24.210Z,59.01
2023-05-14T20:53:33.402Z,61.49
2023-05-14T20:57:36.175Z,58.00
2023-05-14T21:01:39.145Z,56.15
2023-05-14T21:05:43.887Z,55.77
2023-05-14T21:09:52.703Z,55.75
2023-05-14T21:14:01.297Z,57.93
2023-05-14T21:18:05.210Z,53.34
2023-05-14T21:22:08.097Z,53.18
2023-05-14T21:26:12.873Z,52.60
2023-05-14T21:30:16.491Z,52.58
2023-05-14T21:34:19.786Z,52.19
2023-05-14T21:38:22.869Z,52.14
2023-05-14T21:42:27.206Z,51.73
2023-05-14T21:46:30.380Z,51.26
2023-05-14T21:50:33.981Z,50.81
2023-05-14T21:54:36.757Z,51.39
2023-05-14T21:58:41.727Z,51.94
2023-05-14T22:02:44.911Z,51.92
2023-05-14T22:06:48.562Z,51.55
2023-05-14T22:10:53.621Z,51.58
2023-05-14T22:14:59.253Z,53.02
2023-05-14T22:19:02.617Z,52.61
2023-05-14T22:23:06.275Z,52.14
2023-05-14T22:27:09.055Z,51.83
2023-05-14T22:31:13.406Z,50.96
2023-05-14T22:35:16.176Z,51.21
2023-05-14T22:39:19.382Z,51.77
2023-05-14T22:43:22.226Z,51.74
2023-05-14T22:47:27.205Z,52.09
2023-05-14T22:51:30.267Z,52.40
2023-05-14T22:55:33.308Z,51.56
2023-05-14T22:59:36.866Z,53.07
2023-05-14T23:03:40.769Z,52.54
2023-05-14T23:07:43.844Z,51.66
2023-05-14T23:11:49.055Z,52.07
2023-05-14T23:15:52.115Z,51.68
2023-05-14T23:19:56.760Z,51.88
2023-05-14T23:23:59.652Z,52.44
2023-05-14T23:28:02.431Z,53.70
2023-05-14T23:32:05.648Z,51.80
2023-05-14T23:36:11.697Z,52.72
2023-05-14T23:40:15.945Z,52.38
2023-05-14T23:44:19.173Z,51.94
2023-05-14T23:48:21.555Z,52.94
2023-05-14T23:52:25.598Z,52.51
2023-05-14T23:56:29.396Z,52.86
